Aviation Digital Data Service (ADDS)

Output produced by METARs form (1238 UTC 18 August 2017)
found at http://aviationweather.gov/adds/metars/
 
KAUG 181120Z 1812/1912 00000KT P6SM SKC 
     FM181400 10005KT P6SM BKN050 
     FM181600 13005KT 2SM -RA BR OVC015 
     FM190000 15007KT 1SM -RA BR OVC008 
     FM191000 08003KT 1/2SM FG OVC003